To NAV CANADA Home Page Login to a new session Search on AWWS site Disclaimer Vers la page française équivalente Tips FAQ What's new on the site To the Forecasts and Observations / NOTAM section To "File a Flight Plan" website Publications and other links Update of the User's profile FIC Telephone Numbers My Weather Data Folder Route Weather Data Regional Weather Data Local Weather Data To the Forecasts and Observations / NOTAM section
Request Generated 07/10/2020 at 12:31:05 UTC . Weather information available at that time is displayed.

METAR/TAF

TORONTO/LESTER B. PEARSON INTL/ON    

METAR CYYZ 101200Z 14004KT 100V170 15SM FEW160 FEW220 26/21 A2986 RMK AC1CI1 AC TR CI TR SLP111 DENSITY ALT 2100FT=
METAR CYYZ 101100Z 00000KT 15SM FEW160 FEW220 24/20 A2986 RMK AC1CC1 AC TR SLP111 DENSITY ALT 1900FT=
METAR CYYZ 101000Z 31002KT 15SM FEW150 24/20 A2986 RMK AC1 SLP109 DENSITY ALT 1900FT=

TAF CYYZ 101139Z 1012/1118 VRB03KT P6SM SCT170
BECMG 1012/1013 13007KT
FM101500 14012KT P6SM BKN050 TEMPO 1018/1023 P6SM VCTS BKN050CB
FM110200 09010KT P6SM -SHRA BKN030
FM111100 29008KT 6SM -SHRA BR BKN015 OVC030
FM111500 30012KT 6SM -RA BR OVC020
RMK NXT FCST BY 101500Z=
Your time UTC time
Weather data provided by Environment Canada and NAV CANADA